createdAt,value
2018-08-31T00:01:14.514Z,99.90
2018-08-31T00:04:57.328Z,99.90
2018-08-31T00:07:41.672Z,99.90
2018-08-31T00:12:19.172Z,99.90
2018-08-31T00:14:47.397Z,99.90
2018-08-31T00:17:16.544Z,99.90
2018-08-31T00:19:45.639Z,99.90
2018-08-31T00:22:14.716Z,99.90
2018-08-31T00:24:55.117Z,99.90
2018-08-31T00:28:38.332Z,99.90
2018-08-31T00:33:26.720Z,99.90
2018-08-31T00:38:14.889Z,99.90
2018-08-31T00:40:55.244Z,99.90
2018-08-31T00:43:36.475Z,99.90
2018-08-31T00:46:05.891Z,99.90
2018-08-31T00:48:35.076Z,99.90
2018-08-31T00:51:04.556Z,99.90
2018-08-31T00:53:33.928Z,99.90
2018-08-31T00:56:03.160Z,99.90
2018-08-31T00:58:32.416Z,99.90
2018-08-31T01:01:01.715Z,99.90
2018-08-31T01:03:31.101Z,99.90
2018-08-31T01:06:00.797Z,99.90
2018-08-31T01:08:30.132Z,99.90
2018-08-31T01:10:59.557Z,99.90
2018-08-31T01:13:28.952Z,99.90
2018-08-31T01:15:58.507Z,99.90
2018-08-31T01:18:27.909Z,99.90
2018-08-31T01:20:57.122Z,99.90
2018-08-31T01:23:26.338Z,99.90
2018-08-31T01:25:55.516Z,99.90
2018-08-31T01:28:24.657Z,99.90
2018-08-31T01:30:53.812Z,99.90
2018-08-31T01:33:23.196Z,99.90
2018-08-31T01:35:52.340Z,99.90
2018-08-31T01:38:21.748Z,99.90
2018-08-31T01:40:50.982Z,99.90
2018-08-31T01:43:20.207Z,99.90
2018-08-31T01:45:49.383Z,99.90
2018-08-31T01:48:18.675Z,99.90
2018-08-31T01:50:53.352Z,99.90
2018-08-31T01:53:25.760Z,99.90
2018-08-31T01:55:54.991Z,99.90
2018-08-31T01:58:24.098Z,99.90
2018-08-31T02:00:53.213Z,99.90
2018-08-31T02:03:22.316Z,99.90
2018-08-31T02:05:51.411Z,99.90
2018-08-31T02:08:20.707Z,99.90
2018-08-31T02:10:49.892Z,99.90
2018-08-31T02:13:19.225Z,99.90
2018-08-31T02:15:48.291Z,99.90
2018-08-31T02:18:17.545Z,99.90
2018-08-31T02:20:46.811Z,99.90
2018-08-31T02:23:15.999Z,99.90
2018-08-31T02:25:45.337Z,99.90
2018-08-31T02:28:14.455Z,99.90
2018-08-31T02:30:43.671Z,99.90
2018-08-31T02:33:12.885Z,99.90
2018-08-31T02:35:42.055Z,99.90
2018-08-31T02:38:11.233Z,99.90
2018-08-31T02:40:40.413Z,99.90
2018-08-31T02:43:09.674Z,99.90
2018-08-31T02:45:38.892Z,99.90
2018-08-31T02:48:08.098Z,99.90
2018-08-31T02:50:37.252Z,99.90
2018-08-31T02:53:06.737Z,99.90
2018-08-31T02:55:36.157Z,99.90
2018-08-31T02:58:05.462Z,99.90
2018-08-31T03:00:34.602Z,99.90
2018-08-31T03:03:03.944Z,99.90
2018-08-31T03:05:33.126Z,99.90
2018-08-31T03:08:02.490Z,99.90
2018-08-31T03:10:31.627Z,99.90
2018-08-31T03:13:00.907Z,99.90
2018-08-31T03:15:30.123Z,99.90
2018-08-31T03:17:59.413Z,99.90
2018-08-31T03:20:28.667Z,99.90
2018-08-31T03:22:57.908Z,99.90
2018-08-31T03:25:27.282Z,99.90
2018-08-31T03:27:56.667Z,99.90
2018-08-31T03:30:26.067Z,99.90
2018-08-31T03:32:55.377Z,99.90
2018-08-31T03:35:24.558Z,99.90
2018-08-31T03:37:54.011Z,99.90
2018-08-31T03:40:23.354Z,99.90
2018-08-31T03:42:52.751Z,99.90
2018-08-31T03:45:21.860Z,99.90
2018-08-31T03:47:50.973Z,99.90
2018-08-31T03:50:20.332Z,99.90
2018-08-31T03:52:49.444Z,99.90
2018-08-31T03:55:18.800Z,99.90
2018-08-31T03:57:48.048Z,99.90
2018-08-31T04:00:17.265Z,99.90
2018-08-31T04:02:48.711Z,99.90
2018-08-31T04:05:17.759Z,99.90
2018-08-31T04:07:46.880Z,99.90
2018-08-31T04:10:16.042Z,99.90
2018-08-31T04:12:45.108Z,99.90
2018-08-31T04:15:14.409Z,99.90
2018-08-31T04:17:43.544Z,99.90
2018-08-31T04:20:12.860Z,99.90
2018-08-31T04:22:41.946Z,99.90
2018-08-31T04:25:11.265Z,99.90
2018-08-31T04:27:40.349Z,99.90
2018-08-31T04:30:09.522Z,99.90
2018-08-31T04:32:38.588Z,99.90
2018-08-31T04:35:07.985Z,99.90
2018-08-31T04:37:37.207Z,99.90
2018-08-31T04:40:07.252Z,99.90
2018-08-31T04:42:36.455Z,99.90
2018-08-31T04:45:05.625Z,99.90
2018-08-31T04:47:34.723Z,99.90
2018-08-31T04:50:04.675Z,99.90
2018-08-31T04:52:33.919Z,99.90
2018-08-31T04:55:03.056Z,99.90
2018-08-31T04:57:32.049Z,99.90
2018-08-31T05:00:01.168Z,99.90
2018-08-31T05:02:30.460Z,99.90
2018-08-31T05:04:59.637Z,99.90
2018-08-31T05:07:29.709Z,99.90
2018-08-31T05:09:58.799Z,99.90
2018-08-31T05:12:28.331Z,99.90
2018-08-31T05:14:57.490Z,99.90
2018-08-31T05:17:26.785Z,99.90
2018-08-31T05:19:55.936Z,99.90
2018-08-31T05:22:25.023Z,99.90
2018-08-31T05:24:54.200Z,99.90
2018-08-31T05:27:23.256Z,99.90
2018-08-31T05:29:53.237Z,99.90
2018-08-31T05:32:22.326Z,99.90
2018-08-31T05:34:51.482Z,99.90
2018-08-31T05:37:20.608Z,99.90
2018-08-31T05:39:49.742Z,99.90
2018-08-31T05:42:18.841Z,99.90
2018-08-31T05:44:47.905Z,99.90
2018-08-31T05:47:18.210Z,99.90
2018-08-31T05:49:47.267Z,99.90
2018-08-31T05:52:16.929Z,99.90
2018-08-31T05:54:46.058Z,99.90
2018-08-31T05:57:15.379Z,99.90
2018-08-31T05:59:44.500Z,99.90
2018-08-31T06:02:13.723Z,99.90
2018-08-31T06:04:43.083Z,99.90
2018-08-31T06:07:12.205Z,99.90
2018-08-31T06:09:41.589Z,99.90
2018-08-31T06:12:11.178Z,99.90
2018-08-31T06:14:40.767Z,99.90
2018-08-31T06:17:10.231Z,99.90
2018-08-31T06:19:39.463Z,99.90
2018-08-31T06:22:10.012Z,99.90
2018-08-31T06:24:39.736Z,99.90
2018-08-31T06:27:09.516Z,99.90
2018-08-31T06:29:38.980Z,99.90
2018-08-31T06:32:08.784Z,99.90
2018-08-31T06:34:38.535Z,99.90
2018-08-31T06:37:08.240Z,99.90
2018-08-31T06:39:37.343Z,99.90
2018-08-31T06:42:06.562Z,99.90
2018-08-31T06:44:36.488Z,99.90
2018-08-31T06:47:05.818Z,99.90
2018-08-31T06:49:35.079Z,99.90
2018-08-31T06:52:04.440Z,99.90
2018-08-31T06:54:33.646Z,99.90
2018-08-31T06:57:02.772Z,99.90
2018-08-31T06:59:32.081Z,99.90
2018-08-31T07:02:02.048Z,99.90
2018-08-31T07:04:31.377Z,99.90
2018-08-31T07:07:00.491Z,99.90
2018-08-31T07:09:29.639Z,99.90
2018-08-31T07:11:58.708Z,99.90
2018-08-31T07:14:27.736Z,99.90
2018-08-31T07:16:56.967Z,99.90
2018-08-31T07:19:26.201Z,99.90
2018-08-31T07:21:55.343Z,99.90
2018-08-31T07:24:24.361Z,99.90
2018-08-31T07:26:53.716Z,99.90
2018-08-31T07:29:23.732Z,99.90
2018-08-31T07:31:52.827Z,99.90
2018-08-31T07:34:22.028Z,99.90
2018-08-31T07:36:52.248Z,99.90
2018-08-31T07:39:21.562Z,99.90
2018-08-31T07:41:50.739Z,99.90
2018-08-31T07:44:19.798Z,99.90
2018-08-31T07:46:49.091Z,99.90
2018-08-31T07:49:18.344Z,99.50
2018-08-31T07:51:47.491Z,98.70
2018-08-31T07:54:16.795Z,97.70
2018-08-31T07:56:46.042Z,97.50
2018-08-31T07:59:15.240Z,97.40
2018-08-31T08:01:44.601Z,96.70
2018-08-31T08:04:13.788Z,95.20
2018-08-31T08:06:42.960Z,94.80
2018-08-31T08:09:12.233Z,95.00
2018-08-31T08:11:41.353Z,94.10
2018-08-31T08:14:10.417Z,92.70
2018-08-31T08:16:39.501Z,94.00
2018-08-31T08:19:08.565Z,92.30
2018-08-31T08:21:37.732Z,92.90
2018-08-31T08:24:07.092Z,91.50
2018-08-31T08:26:36.175Z,92.30
2018-08-31T08:29:05.351Z,90.20
2018-08-31T08:31:34.508Z,91.70
2018-08-31T08:34:03.620Z,90.80
2018-08-31T08:36:32.664Z,90.20
2018-08-31T08:39:01.824Z,89.50
2018-08-31T08:41:30.984Z,91.00
2018-08-31T08:44:00.124Z,90.70
2018-08-31T08:46:29.178Z,91.10
2018-08-31T08:48:58.308Z,91.90
2018-08-31T08:51:27.640Z,89.50
2018-08-31T08:53:56.853Z,90.80
2018-08-31T08:56:26.243Z,92.70
2018-08-31T08:58:55.621Z,91.20
2018-08-31T09:01:24.711Z,92.70
2018-08-31T09:03:53.783Z,94.70
2018-08-31T09:06:22.927Z,97.40
2018-08-31T09:08:52.261Z,97.90
2018-08-31T09:11:21.503Z,99.90
2018-08-31T09:13:50.727Z,99.90
2018-08-31T09:16:20.256Z,99.90
2018-08-31T09:18:49.698Z,99.90
2018-08-31T09:21:18.831Z,99.90
2018-08-31T09:23:48.184Z,99.90
2018-08-31T09:26:18.001Z,99.90
2018-08-31T09:28:47.189Z,99.90
2018-08-31T09:31:18.512Z,99.90
2018-08-31T09:33:47.815Z,99.90
2018-08-31T09:36:16.901Z,99.90
2018-08-31T09:38:46.139Z,99.90
2018-08-31T09:41:15.806Z,99.90
2018-08-31T09:43:44.884Z,99.90
2018-08-31T09:46:13.909Z,99.90
2018-08-31T09:48:43.277Z,99.90
2018-08-31T09:51:12.531Z,99.90
2018-08-31T09:53:42.209Z,99.90
2018-08-31T09:56:11.697Z,99.90
2018-08-31T09:58:41.080Z,99.90
2018-08-31T10:01:15.583Z,99.90
2018-08-31T10:03:44.663Z,99.90
2018-08-31T10:06:13.800Z,99.90
2018-08-31T10:08:42.873Z,99.90
2018-08-31T10:11:11.947Z,99.90
2018-08-31T10:13:41.079Z,99.90
2018-08-31T10:16:10.215Z,99.90
2018-08-31T10:18:39.320Z,99.90
2018-08-31T10:21:08.640Z,99.90
2018-08-31T10:23:37.736Z,99.90
2018-08-31T10:26:06.929Z,99.90
2018-08-31T10:28:35.975Z,99.90
2018-08-31T10:31:05.245Z,99.90
2018-08-31T10:33:34.568Z,99.90
2018-08-31T10:36:03.886Z,99.90
2018-08-31T10:38:33.116Z,99.90
2018-08-31T10:41:03.053Z,99.90
2018-08-31T10:43:32.079Z,99.90
2018-08-31T10:46:01.200Z,99.90
2018-08-31T10:48:30.620Z,99.90
2018-08-31T10:50:59.929Z,99.90
2018-08-31T10:53:29.255Z,99.90
2018-08-31T10:55:58.352Z,99.90
2018-08-31T10:58:27.572Z,99.90
2018-08-31T11:00:56.772Z,99.90
2018-08-31T11:03:25.980Z,99.90
2018-08-31T11:05:55.469Z,99.90
2018-08-31T11:08:24.789Z,99.90
2018-08-31T11:10:53.956Z,99.90
2018-08-31T11:13:23.127Z,99.90
2018-08-31T11:15:52.453Z,99.90
2018-08-31T11:18:21.520Z,99.90
2018-08-31T11:20:50.731Z,99.90
2018-08-31T11:23:19.835Z,99.90
2018-08-31T11:25:48.935Z,99.90
2018-08-31T11:28:18.071Z,99.90
2018-08-31T11:30:47.704Z,99.90
2018-08-31T11:33:16.892Z,99.90
2018-08-31T11:35:46.001Z,98.50
2018-08-31T11:38:15.118Z,97.40
2018-08-31T11:40:44.332Z,95.70
2018-08-31T11:43:13.798Z,93.30
2018-08-31T11:45:43.038Z,92.70
2018-08-31T11:48:12.281Z,90.00
2018-08-31T11:50:41.480Z,91.80
2018-08-31T11:53:10.751Z,86.80
2018-08-31T11:55:40.167Z,85.80
2018-08-31T11:58:09.440Z,85.60
2018-08-31T12:00:38.575Z,86.80
2018-08-31T12:03:07.815Z,83.70
2018-08-31T12:05:37.052Z,87.20
2018-08-31T12:08:06.440Z,86.00
2018-08-31T12:10:35.880Z,84.20
2018-08-31T12:13:05.396Z,82.30
2018-08-31T12:15:34.784Z,80.80
2018-08-31T12:18:04.124Z,85.40
2018-08-31T12:20:33.432Z,79.10
2018-08-31T12:23:03.924Z,77.40
2018-08-31T12:25:33.260Z,77.70
2018-08-31T12:28:02.533Z,77.50
2018-08-31T12:30:31.758Z,83.30
2018-08-31T12:33:00.848Z,79.80
2018-08-31T12:35:30.217Z,80.20
2018-08-31T12:37:59.286Z,80.60
2018-08-31T12:40:28.563Z,85.10
2018-08-31T12:42:57.875Z,88.10
2018-08-31T12:45:26.978Z,87.50
2018-08-31T12:47:56.151Z,90.40
2018-08-31T12:50:25.727Z,85.40
2018-08-31T12:52:54.804Z,83.60
2018-08-31T12:55:23.964Z,87.50
2018-08-31T12:57:53.163Z,91.10
2018-08-31T13:00:22.361Z,92.40
2018-08-31T13:02:51.665Z,92.70
2018-08-31T13:05:20.843Z,94.20
2018-08-31T13:07:50.501Z,94.30
2018-08-31T13:10:20.080Z,94.50
2018-08-31T13:12:49.344Z,94.90
2018-08-31T13:15:18.561Z,95.60
2018-08-31T13:17:47.709Z,98.00
2018-08-31T13:20:18.570Z,96.40
2018-08-31T13:22:48.035Z,95.20
2018-08-31T13:25:17.427Z,96.20
2018-08-31T13:27:46.812Z,93.60
2018-08-31T13:30:16.166Z,93.40
2018-08-31T13:32:45.472Z,93.60
2018-08-31T13:35:14.678Z,92.70
2018-08-31T13:37:43.936Z,92.70
2018-08-31T13:40:13.378Z,92.00
2018-08-31T13:42:42.858Z,93.30
2018-08-31T13:45:12.255Z,92.00
2018-08-31T13:47:41.782Z,92.10
2018-08-31T13:50:11.338Z,87.90
2018-08-31T13:52:40.734Z,89.00
2018-08-31T13:55:10.205Z,92.20
2018-08-31T13:57:40.312Z,91.00
2018-08-31T14:00:10.147Z,88.60
2018-08-31T14:02:39.908Z,85.30
2018-08-31T14:05:09.762Z,85.70
2018-08-31T14:07:39.477Z,85.20
2018-08-31T14:10:08.787Z,87.80
2018-08-31T14:12:38.142Z,90.80
2018-08-31T14:15:07.795Z,87.30
2018-08-31T14:17:37.092Z,88.50
2018-08-31T14:20:06.303Z,91.00
2018-08-31T14:22:35.359Z,90.10
2018-08-31T14:25:04.629Z,85.10
2018-08-31T14:27:33.743Z,85.90
2018-08-31T14:30:03.048Z,90.70
2018-08-31T14:32:32.357Z,90.60
2018-08-31T14:35:01.617Z,90.60
2018-08-31T14:37:30.950Z,89.40
2018-08-31T14:40:00.070Z,88.50
2018-08-31T14:42:29.252Z,83.20
2018-08-31T14:44:58.352Z,89.90
2018-08-31T14:47:27.541Z,89.20
2018-08-31T14:49:56.793Z,85.70
2018-08-31T14:52:25.977Z,89.10
2018-08-31T14:54:55.032Z,85.00
2018-08-31T14:57:24.217Z,87.80
2018-08-31T14:59:53.979Z,83.40
2018-08-31T15:02:23.107Z,90.60
2018-08-31T15:04:52.246Z,89.30
2018-08-31T15:07:21.317Z,88.80
2018-08-31T15:09:50.636Z,90.20
2018-08-31T15:12:19.838Z,90.50
2018-08-31T15:14:48.958Z,91.30
2018-08-31T15:17:18.171Z,90.30
2018-08-31T15:19:47.350Z,91.30
2018-08-31T15:22:16.424Z,91.90
2018-08-31T15:24:45.492Z,92.30
2018-08-31T15:27:14.702Z,93.80
2018-08-31T15:29:43.984Z,91.50
2018-08-31T15:32:13.092Z,93.80
2018-08-31T15:34:42.165Z,93.40
2018-08-31T15:37:11.316Z,93.90
2018-08-31T15:39:40.519Z,93.20
2018-08-31T15:42:09.679Z,93.10
2018-08-31T15:44:39.452Z,94.80
2018-08-31T15:47:08.572Z,94.20
2018-08-31T15:49:37.830Z,98.10
2018-08-31T15:52:07.399Z,95.60
2018-08-31T15:54:36.669Z,96.70
2018-08-31T15:57:05.857Z,96.10
2018-08-31T15:59:35.036Z,97.00
2018-08-31T16:02:04.303Z,97.50
2018-08-31T16:04:33.479Z,97.00
2018-08-31T16:07:02.597Z,97.30
2018-08-31T16:09:31.817Z,97.30
2018-08-31T16:12:00.894Z,97.50
2018-08-31T16:14:30.479Z,97.30
2018-08-31T16:16:59.579Z,96.10
2018-08-31T16:19:28.906Z,98.30
2018-08-31T16:21:58.031Z,98.00
2018-08-31T16:24:27.164Z,98.60
2018-08-31T16:26:56.347Z,99.30
2018-08-31T16:29:25.453Z,99.70
2018-08-31T16:31:54.678Z,99.20
2018-08-31T16:34:23.831Z,98.90
2018-08-31T16:36:53.073Z,99.90
2018-08-31T16:39:22.155Z,99.50
2018-08-31T16:41:51.324Z,99.90
2018-08-31T16:44:20.416Z,99.90
2018-08-31T16:46:49.496Z,99.90
2018-08-31T16:49:18.537Z,99.90
2018-08-31T16:51:47.602Z,99.90
2018-08-31T16:54:16.911Z,99.90
2018-08-31T16:56:46.008Z,99.90
2018-08-31T16:59:15.224Z,99.90
2018-08-31T17:01:44.337Z,99.90
2018-08-31T17:04:13.456Z,99.90
2018-08-31T17:06:42.936Z,99.90
2018-08-31T17:09:13.409Z,99.90
2018-08-31T17:11:42.624Z,99.90
2018-08-31T17:14:11.700Z,99.90
2018-08-31T17:16:40.885Z,99.90
2018-08-31T17:19:09.905Z,99.90
2018-08-31T17:21:39.083Z,99.90
2018-08-31T17:24:08.093Z,99.90
2018-08-31T17:26:42.457Z,99.90
2018-08-31T17:29:17.397Z,99.90
2018-08-31T17:31:52.774Z,99.90
2018-08-31T17:34:27.391Z,99.90
2018-08-31T17:37:02.244Z,99.90
2018-08-31T17:39:31.532Z,99.90
2018-08-31T17:42:01.204Z,99.90
2018-08-31T17:44:30.305Z,99.90
2018-08-31T17:46:59.513Z,99.90
2018-08-31T17:49:29.588Z,99.90
2018-08-31T17:51:58.731Z,99.90
2018-08-31T17:54:27.988Z,99.90
2018-08-31T17:56:57.069Z,99.90
2018-08-31T17:59:26.914Z,99.90
2018-08-31T18:01:56.328Z,99.90
2018-08-31T18:04:25.478Z,99.90
2018-08-31T18:06:54.631Z,99.90
2018-08-31T18:09:23.976Z,99.90
2018-08-31T18:11:53.040Z,99.90
2018-08-31T18:14:22.119Z,99.90
2018-08-31T18:16:51.297Z,99.90
2018-08-31T18:19:20.540Z,99.90
2018-08-31T18:21:49.784Z,99.90
2018-08-31T18:24:19.136Z,99.90
2018-08-31T18:26:48.400Z,99.90
2018-08-31T18:29:17.497Z,99.90
2018-08-31T18:31:46.900Z,99.90
2018-08-31T18:34:16.275Z,99.90
2018-08-31T18:36:45.504Z,99.90
2018-08-31T18:39:15.117Z,99.90
2018-08-31T18:41:43.414Z,99.90
2018-08-31T18:44:11.674Z,99.90
2018-08-31T18:46:41.908Z,99.90
2018-08-31T18:49:11.307Z,99.90
2018-08-31T18:51:40.680Z,99.90
2018-08-31T18:54:09.808Z,99.90
2018-08-31T18:56:39.310Z,99.90
2018-08-31T18:59:08.632Z,99.90
2018-08-31T19:01:37.860Z,99.90
2018-08-31T19:04:07.348Z,99.90
2018-08-31T19:06:36.616Z,99.90
2018-08-31T19:09:07.083Z,99.90
2018-08-31T19:11:36.281Z,99.90
2018-08-31T19:14:05.564Z,99.90
2018-08-31T19:16:34.736Z,99.90
2018-08-31T19:19:03.968Z,99.90
2018-08-31T19:21:33.026Z,99.90
2018-08-31T19:24:02.229Z,99.90
2018-08-31T19:26:31.410Z,99.90
2018-08-31T19:29:01.041Z,99.90
2018-08-31T19:31:30.600Z,99.90
2018-08-31T19:34:01.185Z,99.90
2018-08-31T19:36:30.497Z,99.90
2018-08-31T19:38:59.988Z,99.90
2018-08-31T19:41:29.379Z,99.90
2018-08-31T19:43:58.947Z,99.90
2018-08-31T19:46:28.415Z,99.90
2018-08-31T19:48:57.708Z,99.90
2018-08-31T19:51:27.758Z,99.90
2018-08-31T19:53:57.985Z,99.90
2018-08-31T19:56:27.148Z,99.90
2018-08-31T19:58:56.265Z,99.90
2018-08-31T20:01:25.628Z,99.90
2018-08-31T20:03:56.214Z,99.90
2018-08-31T20:06:25.590Z,99.90
2018-08-31T20:08:55.113Z,99.90
2018-08-31T20:11:24.592Z,99.90
2018-08-31T20:13:53.952Z,99.90
2018-08-31T20:16:23.342Z,99.90
2018-08-31T20:18:52.490Z,99.90
2018-08-31T20:21:21.772Z,99.90
2018-08-31T20:23:51.101Z,99.90
2018-08-31T20:26:20.295Z,99.90
2018-08-31T20:28:50.753Z,99.90
2018-08-31T20:31:19.699Z,99.90
2018-08-31T20:33:48.774Z,99.90
2018-08-31T20:36:18.428Z,99.90
2018-08-31T20:38:48.197Z,99.90
2018-08-31T20:41:17.483Z,99.90
2018-08-31T20:43:47.188Z,99.90
2018-08-31T20:46:16.877Z,99.90
2018-08-31T20:48:46.623Z,99.90
2018-08-31T20:51:15.902Z,99.90
2018-08-31T20:53:45.026Z,99.90
2018-08-31T20:56:14.588Z,99.90
2018-08-31T20:58:43.911Z,99.90
2018-08-31T21:01:13.023Z,99.90
2018-08-31T21:03:42.243Z,99.90
2018-08-31T21:06:11.451Z,99.90
2018-08-31T21:08:40.632Z,99.90
2018-08-31T21:11:09.772Z,99.90
2018-08-31T21:13:38.876Z,99.90
2018-08-31T21:16:08.002Z,99.90
2018-08-31T21:18:37.167Z,99.90
2018-08-31T21:21:06.527Z,99.90
2018-08-31T21:23:35.632Z,99.90
2018-08-31T21:26:04.797Z,99.90
2018-08-31T21:28:34.296Z,99.90
2018-08-31T21:31:03.453Z,99.90
2018-08-31T21:33:32.504Z,99.90
2018-08-31T21:36:01.880Z,99.90
2018-08-31T21:38:31.039Z,99.90
2018-08-31T21:41:00.227Z,99.90
2018-08-31T21:43:29.331Z,99.90
2018-08-31T21:45:58.745Z,99.90
2018-08-31T21:48:28.301Z,99.90
2018-08-31T21:50:57.544Z,99.90
2018-08-31T21:53:26.970Z,99.90
2018-08-31T21:55:56.171Z,99.90
2018-08-31T21:58:25.387Z,99.90
2018-08-31T22:00:59.018Z,99.90
2018-08-31T22:03:28.724Z,99.90
2018-08-31T22:05:57.067Z,99.90
2018-08-31T22:08:26.250Z,99.90
2018-08-31T22:13:35.388Z,99.90
2018-08-31T22:16:04.915Z,99.90
2018-08-31T22:18:34.617Z,99.90
2018-08-31T22:21:04.363Z,99.90
2018-08-31T22:23:34.396Z,99.90
2018-08-31T22:26:04.356Z,99.90
2018-08-31T22:28:33.641Z,99.90
2018-08-31T22:31:03.386Z,99.90
2018-08-31T22:33:32.727Z,99.90
2018-08-31T22:36:02.262Z,99.90
2018-08-31T22:38:31.452Z,99.90
2018-08-31T22:41:00.521Z,99.90
2018-08-31T22:43:35.063Z,99.90
2018-08-31T22:46:04.784Z,99.90
2018-08-31T22:48:34.325Z,99.90
2018-08-31T22:51:04.127Z,99.90
2018-08-31T22:53:33.359Z,99.90
2018-08-31T22:56:02.807Z,99.90
2018-08-31T22:58:32.032Z,99.90
2018-08-31T23:01:00.481Z,99.90
2018-08-31T23:03:29.252Z,99.90
2018-08-31T23:05:57.708Z,99.90
2018-08-31T23:16:44.608Z,99.90
2018-08-31T23:19:14.292Z,99.90
2018-08-31T23:21:43.876Z,99.90
2018-08-31T23:24:13.223Z,99.90
2018-08-31T23:26:43.149Z,99.90
2018-08-31T23:29:12.392Z,99.90
2018-08-31T23:31:41.617Z,99.90
2018-08-31T23:34:11.134Z,99.90
2018-08-31T23:36:40.253Z,99.90
2018-08-31T23:39:10.381Z,99.90
2018-08-31T23:41:39.416Z,99.90
2018-08-31T23:44:08.510Z,99.90
2018-08-31T23:46:37.767Z,99.90
2018-08-31T23:49:06.887Z,99.90
2018-08-31T23:51:35.936Z,99.90
2018-08-31T23:54:05.190Z,99.90
2018-08-31T23:56:34.369Z,99.90
2018-08-31T23:59:03.588Z,99.90
